Time;durP1;ratioP1;P1;durP2;ratioP2;P2;SDS_P1;SDS_P2;PMS_P1;PMS_P2;Temp;Humidity;BMP_temperature;BMP_pressure;BME280_temperature;BME280_humidity;BME280_pressure;Samples;Min_cycle;Max_cycle;Signal;HPM_P1;HPM_P2
2022/07/02 00:01:18;;;;;;;6.65;4.30;;;;;;;19.38;71.91;100654.83;1666722;84;21604;-72
2022/07/02 00:03:51;;;;;;;3.62;1.90;;;;;;;19.14;72.18;100603.56;1661407;84;21064;-77
2022/07/02 00:06:20;;;;;;;3.40;3.20;;;;;;;19.43;69.40;100647.64;1660928;84;21015;-77
2022/07/02 00:08:47;;;;;;;3.85;2.75;;;;;;;19.55;66.97;100648.98;1657630;84;21053;-76
2022/07/02 00:12:10;;;;;;;1.90;1.80;;;;;;;19.81;64.11;100651.65;1778329;77;22848;-77
2022/07/02 00:14:37;;;;;;;2.12;1.60;;;;;;;19.96;61.90;100653.00;1665304;85;21095;-77
2022/07/02 00:17:04;;;;;;;1.95;1.85;;;;;;;20.14;60.53;100656.86;1634259;85;21563;-77
2022/07/02 00:19:33;;;;;;;1.75;1.65;;;;;;;20.31;59.54;100651.45;1656584;85;21154;-77
2022/07/02 00:22:04;;;;;;;2.40;1.65;;;;;;;20.41;59.81;100659.73;1656563;85;21090;-77
2022/07/02 00:24:30;;;;;;;3.22;2.42;;;;;;;20.48;58.95;100652.00;1643164;85;21389;-77
2022/07/02 00:26:57;;;;;;;4.25;3.15;;;;;;;20.58;58.91;100652.15;1668274;84;21580;-78
2022/07/02 00:29:57;;;;;;;3.67;2.83;;;;;;;20.66;58.93;100656.36;1667747;84;21056;-76
2022/07/02 00:32:30;;;;;;;2.35;2.15;;;;;;;20.70;58.75;100656.98;1674759;84;21464;-71
2022/07/02 00:35:04;;;;;;;4.35;2.30;;;;;;;20.71;58.76;100668.09;1678942;83;20964;-75
2022/07/02 00:37:32;;;;;;;3.05;2.85;;;;;;;20.72;58.73;100671.09;1685016;83;21107;-76
2022/07/02 00:39:58;;;;;;;2.55;2.35;;;;;;;20.71;58.83;100665.92;1684906;83;21063;-76
2022/07/02 00:42:25;;;;;;;;;;;;;;;20.69;58.50;100670.23;1684959;83;21581;-77
2022/07/02 00:44:52;;;;;;;3.47;2.72;;;;;;;20.70;58.66;100664.27;1674024;83;20142;-76
2022/07/02 00:47:23;;;;;;;3.30;2.52;;;;;;;20.65;58.83;100668.27;1669323;84;21392;-75
2022/07/02 00:49:50;;;;;;;5.00;2.20;;;;;;;20.60;58.88;100661.69;1645624;86;21037;-76
2022/07/02 00:52:16;;;;;;;5.15;1.98;;;;;;;20.58;58.84;100667.85;1672352;84;21001;-75
2022/07/02 00:54:43;;;;;;;3.52;2.60;;;;;;;20.59;58.70;100664.64;1663000;84;21083;-76
2022/07/02 00:57:11;;;;;;;2.55;2.35;;;;;;;20.58;58.67;100675.16;1668623;84;21090;-75
2022/07/02 00:59:37;;;;;;;3.27;2.90;;;;;;;20.56;58.86;100672.70;1655228;86;21042;-77
2022/07/02 01:02:07;;;;;;;2.30;2.10;;;;;;;20.54;58.84;100667.25;1674742;84;21697;-76
2022/07/02 01:04:34;;;;;;;2.25;2.00;;;;;;;20.52;58.89;100666.69;1649102;85;21606;-75
2022/07/02 01:07:07;;;;;;;3.15;2.85;;;;;;;20.51;59.27;100667.73;1650005;85;21536;-77
2022/07/02 01:12:28;;;;;;;3.80;2.10;;;;;;;20.42;59.20;100669.51;1648771;85;21570;-78
2022/07/02 01:14:57;;;;;;;3.95;2.95;;;;;;;20.36;59.18;100683.19;1656396;85;21067;-77
2022/07/02 01:17:25;;;;;;;2.95;2.67;;;;;;;20.33;59.56;100690.47;1656242;85;21562;-77
2022/07/02 01:19:53;;;;;;;2.67;2.58;;;;;;;20.29;59.75;100694.73;1663676;83;21098;-76
2022/07/02 01:22:25;;;;;;;2.55;2.35;;;;;;;20.25;59.69;100694.40;1676644;83;21122;-77
2022/07/02 01:24:53;;;;;;;3.67;2.25;;;;;;;20.21;59.87;100703.53;1693878;83;21282;-77
2022/07/02 01:27:22;;;;;;;2.30;2.10;;;;;;;20.19;59.80;100700.77;1694061;84;21509;-77
2022/07/02 01:29:50;;;;;;;3.77;2.80;;;;;;;20.17;59.91;100702.89;1692575;84;21021;-77
2022/07/02 01:32:17;;;;;;;2.45;2.25;;;;;;;20.15;59.96;100707.73;1692573;83;21030;-77
2022/07/02 01:34:48;;;;;;;3.02;2.77;;;;;;;20.13;59.97;100709.32;1714372;81;22166;-78
2022/07/02 01:37:18;;;;;;;2.37;2.15;;;;;;;20.10;60.31;100708.47;1715669;82;21029;-75
2022/07/02 01:39:46;;;;;;;3.90;2.45;;;;;;;20.06;60.34;100714.09;1723254;82;21177;-76
2022/07/02 01:42:16;;;;;;;3.22;2.52;;;;;;;20.01;60.63;100716.14;1720739;82;21601;-78
2022/07/02 01:44:45;;;;;;;3.05;2.65;;;;;;;19.97;60.68;100721.76;1722238;82;21638;-76
2022/07/02 01:47:13;;;;;;;3.35;2.75;;;;;;;19.92;60.72;100720.30;1721839;82;21514;-72
2022/07/02 01:49:40;;;;;;;2.60;2.12;;;;;;;19.88;61.07;100720.50;1707824;83;21105;-76
2022/07/02 01:52:08;;;;;;;2.62;2.47;;;;;;;19.82;61.31;100724.98;1714609;82;21076;-75
2022/07/02 01:54:35;;;;;;;2.45;2.25;;;;;;;19.78;61.42;100722.47;1722345;82;21158;-76
2022/07/02 01:57:03;;;;;;;4.55;2.00;;;;;;;19.73;61.53;100725.61;1691452;83;21029;-75
2022/07/02 01:59:29;;;;;;;2.58;2.47;;;;;;;19.70;61.57;100721.45;1686559;84;21064;-76
2022/07/02 02:01:57;;;;;;;3.27;2.05;;;;;;;19.68;61.83;100726.28;1701602;82;21128;-76
2022/07/02 02:04:23;;;;;;;;;;;;;;;19.63;61.94;100721.59;1713580;82;21067;-77
2022/07/02 02:06:49;;;;;;;2.15;1.95;;;;;;;19.61;62.20;100722.91;1711290;82;20431;-78
2022/07/02 02:09:16;;;;;;;6.05;2.37;;;;;;;19.52;62.46;100731.91;1670353;84;21049;-78
2022/07/02 02:11:43;;;;;;;2.50;2.37;;;;;;;19.52;62.55;100727.04;1701794;81;21033;-77
2022/07/02 02:14:09;;;;;;;3.58;2.50;;;;;;;19.52;63.00;100737.86;1662512;85;21500;-74
2022/07/02 02:16:35;;;;;;;;;;;;;;;19.49;63.46;100735.61;1669018;85;21065;-77
2022/07/02 02:19:05;;;;;;;2.77;2.62;;;;;;;19.44;63.64;100739.05;1664740;85;20140;-76
2022/07/02 02:21:31;;;;;;;3.45;2.17;;;;;;;19.39;63.82;100745.69;1669070;84;21029;-77
2022/07/02 02:23:59;;;;;;;2.33;2.20;;;;;;;19.54;63.52;100741.14;1664429;84;21011;-77
2022/07/02 02:26:26;;;;;;;2.55;2.33;;;;;;;19.83;62.76;100737.46;1664503;85;21529;-75
2022/07/02 02:28:53;;;;;;;3.55;2.10;;;;;;;20.04;61.97;100740.53;1664484;85;21030;-76
2022/07/02 02:31:22;;;;;;;2.60;2.47;;;;;;;20.20;61.30;100744.37;1663430;84;21085;-75
2022/07/02 02:33:50;;;;;;;3.50;1.95;;;;;;;20.38;60.80;100745.52;1664413;83;21014;-76
2022/07/02 02:36:16;;;;;;;2.33;2.17;;;;;;;20.65;60.07;100746.81;1665340;85;21561;-77
2022/07/02 02:38:42;;;;;;;2.27;1.90;;;;;;;21.00;59.24;100751.45;1665302;85;21069;-77
2022/07/02 02:41:09;;;;;;;1.90;1.77;;;;;;;21.41;58.11;100747.14;1669727;85;21119;-77
2022/07/02 02:43:37;;;;;;;2.70;2.50;;;;;;;21.78;56.77;100735.71;1664631;85;21023;-76
2022/07/02 02:46:05;;;;;;;1.85;1.75;;;;;;;22.04;55.18;100742.25;1654797;83;21062;-80
2022/07/02 02:48:33;;;;;;;1.90;1.80;;;;;;;22.22;54.78;100751.11;1659015;85;21082;-78
2022/07/02 02:51:00;;;;;;;1.80;1.70;;;;;;;22.52;53.67;100750.62;1657509;85;21042;-77
2022/07/02 02:53:26;;;;;;;2.75;1.47;;;;;;;22.86;52.41;100756.60;1659566;85;21011;-77
2022/07/02 02:55:52;;;;;;;4.67;1.70;;;;;;;23.00;51.75;100752.92;1652905;83;21025;-77
2022/07/02 02:58:18;;;;;;;1.87;1.77;;;;;;;23.05;51.55;100757.04;1649295;85;21024;-78
2022/07/02 03:00:45;;;;;;;2.87;1.50;;;;;;;23.04;51.07;100754.06;1647938;85;20988;-76
2022/07/02 03:03:11;;;;;;;4.05;1.90;;;;;;;23.02;51.54;100756.70;1662214;85;21073;-77
2022/07/02 03:05:39;;;;;;;4.60;1.82;;;;;;;23.08;51.52;100767.95;1666435;85;21053;-78
2022/07/02 03:08:05;;;;;;;3.22;1.62;;;;;;;23.36;51.33;100766.77;1663328;85;21068;-79
2022/07/02 03:10:32;;;;;;;3.77;2.00;;;;;;;23.77;49.97;100764.77;1668177;85;21033;-79
2022/07/02 03:12:58;;;;;;;2.52;1.62;;;;;;;24.15;48.67;100762.22;1660123;85;21081;-80
2022/07/02 03:15:25;;;;;;;3.27;1.98;;;;;;;24.39;48.13;100772.08;1662165;85;21511;-79
2022/07/02 03:17:53;;;;;;;2.50;1.15;;;;;;;24.59;47.45;100774.58;1660944;85;21042;-79
2022/07/02 03:20:19;;;;;;;3.47;1.07;;;;;;;24.72;46.71;100780.04;1661802;85;21121;-80
2022/07/02 03:22:46;;;;;;;2.33;1.30;;;;;;;24.86;46.37;100780.59;1665578;82;21107;-80
2022/07/02 03:25:13;;;;;;;3.60;1.40;;;;;;;24.96;45.92;100783.84;1685359;83;21050;-80
2022/07/02 03:27:39;;;;;;;1.70;1.40;;;;;;;24.99;45.55;100781.92;1684708;83;21038;-79
2022/07/02 03:30:08;;;;;;;1.20;1.10;;;;;;;25.11;45.29;100793.09;1687331;83;21066;-79
2022/07/02 03:32:34;;;;;;;5.10;1.62;;;;;;;25.22;44.88;100781.07;1687804;83;21569;-78
2022/07/02 03:35:00;;;;;;;1.82;1.65;;;;;;;25.39;44.63;100792.55;1676638;83;21128;-81
2022/07/02 03:37:28;;;;;;;1.42;1.25;;;;;;;25.41;44.41;100794.45;1673724;84;21586;-77
2022/07/02 03:39:55;;;;;;;4.78;1.75;;;;;;;25.43;44.22;100792.26;1667128;84;21664;-77
2022/07/02 03:42:21;;;;;;;2.55;1.40;;;;;;;25.55;43.79;100793.87;1668771;84;21117;-78
2022/07/02 03:44:47;;;;;;;1.75;1.27;;;;;;;25.83;43.19;100790.48;1669394;84;21042;-76
2022/07/02 03:47:13;;;;;;;4.15;1.82;;;;;;;26.03;42.75;100793.70;1659975;84;21022;-79
2022/07/02 03:49:40;;;;;;;5.70;1.60;;;;;;;25.76;42.88;100795.97;1669880;84;21566;-78
2022/07/02 03:52:08;;;;;;;1.02;1.02;;;;;;;25.38;43.50;100801.81;1655870;84;21011;-76
2022/07/02 03:54:34;;;;;;;0.70;0.70;;;;;;;25.13;44.26;100799.08;1666137;84;21573;-77
2022/07/02 03:57:00;;;;;;;2.90;1.60;;;;;;;25.35;44.48;100788.71;1647393;84;21034;-75
2022/07/02 03:59:28;;;;;;;1.52;1.30;;;;;;;25.68;42.73;100789.73;1616031;88;21113;-77
2022/07/02 04:01:54;;;;;;;2.15;1.32;;;;;;;25.76;43.22;100786.41;1690799;83;21051;-78
2022/07/02 04:04:21;;;;;;;2.67;1.55;;;;;;;25.91;42.18;100772.69;1701568;83;22126;-79
2022/07/02 04:06:47;;;;;;;1.07;0.95;;;;;;;25.79;42.23;100771.66;1700209;83;21133;-74
2022/07/02 04:09:14;;;;;;;1.70;1.27;;;;;;;25.79;42.43;100772.22;1701449;83;21093;-79
2022/07/02 04:11:41;;;;;;;12.43;1.62;;;;;;;26.13;42.39;100765.52;1676353;84;21022;-77
2022/07/02 04:14:08;;;;;;;2.62;1.17;;;;;;;26.46;41.01;100766.39;1699549;83;21090;-75
2022/07/02 04:16:34;;;;;;;1.25;0.85;;;;;;;26.68;40.04;100763.25;1697214;83;21001;-76
2022/07/02 04:19:00;;;;;;;4.53;1.40;;;;;;;26.86;40.98;100766.66;1697010;83;21121;-77
2022/07/02 04:21:26;;;;;;;2.30;0.82;;;;;;;27.11;39.42;100767.52;1698600;83;21040;-78
2022/07/02 04:23:52;;;;;;;2.33;0.85;;;;;;;27.26;39.08;100770.68;1697552;83;21022;-77
2022/07/02 04:26:18;;;;;;;3.45;1.67;;;;;;;27.45;39.15;100780.33;1697348;83;21058;-76
2022/07/02 04:28:44;;;;;;;2.58;1.02;;;;;;;27.65;38.55;100784.73;1695387;83;21022;-73
2022/07/02 04:31:10;;;;;;;14.87;1.40;;;;;;;27.78;38.06;100779.91;1703740;83;21036;-78
2022/07/02 04:33:36;;;;;;;1.47;1.37;;;;;;;27.91;37.77;100778.41;1690266;82;21103;-77
2022/07/02 04:36:03;;;;;;;2.37;0.85;;;;;;;27.62;37.45;100782.59;1722598;82;21513;-77
2022/07/02 04:38:29;;;;;;;1.57;1.30;;;;;;;27.34;38.27;100787.27;1720686;82;21021;-77
2022/07/02 04:40:55;;;;;;;6.17;1.00;;;;;;;27.14;38.48;100787.44;1714679;82;21029;-78
2022/07/02 04:43:21;;;;;;;1.25;1.00;;;;;;;26.88;39.45;100791.80;1721570;82;21037;-78
2022/07/02 04:45:47;;;;;;;2.92;0.98;;;;;;;26.96;38.71;100802.67;1712395;81;21016;-68
2022/07/02 04:48:13;;;;;;;2.62;1.12;;;;;;;27.19;38.38;100791.50;1725657;82;21069;-69
2022/07/02 04:50:40;;;;;;;1.55;0.98;;;;;;;27.46;38.32;100794.26;1720850;82;20989;-67
2022/07/02 04:53:06;;;;;;;1.17;1.02;;;;;;;27.83;37.62;100809.17;1721307;82;21009;-68
2022/07/02 04:55:32;;;;;;;4.78;1.27;;;;;;;28.20;36.85;100811.72;1716034;82;21031;-68
2022/07/02 04:57:58;;;;;;;1.42;1.00;;;;;;;28.46;36.22;100809.42;1701411;83;21048;-70
2022/07/02 05:00:25;;;;;;;1.20;1.05;;;;;;;28.63;35.66;100813.04;1701744;83;20982;-69
2022/07/02 05:02:52;;;;;;;2.00;1.22;;;;;;;28.48;36.06;100811.31;1700206;83;21553;-70
2022/07/02 05:05:18;;;;;;;5.22;1.20;;;;;;;28.24;36.58;100808.67;1700556;83;21067;-72
2022/07/02 05:07:44;;;;;;;1.85;0.57;;;;;;;28.09;36.08;100814.61;1701482;83;21029;-71
2022/07/02 05:10:12;;;;;;;4.47;0.85;;;;;;;27.85;36.49;100818.72;1702122;83;21060;-69
2022/07/02 05:12:39;;;;;;;6.97;1.52;;;;;;;27.82;36.55;100814.38;1705729;83;21040;-67
2022/07/02 05:15:08;;;;;;;2.90;0.93;;;;;;;28.12;36.74;100824.99;1702100;83;21025;-68
2022/07/02 05:17:34;;;;;;;4.70;0.53;;;;;;;28.38;35.67;100819.14;1701524;83;21045;-67
2022/07/02 05:20:00;;;;;;;0.55;0.55;;;;;;;28.37;35.05;100825.75;1666482;85;21150;-68
2022/07/02 05:22:27;;;;;;;1.57;0.50;;;;;;;28.41;34.82;100830.89;1700623;81;21708;-73
2022/07/02 05:24:54;;;;;;;5.75;0.62;;;;;;;28.57;34.34;100826.58;1698749;83;21036;-71
2022/07/02 05:27:20;;;;;;;0.55;0.45;;;;;;;28.62;34.13;100812.80;1708289;83;21060;-68
2022/07/02 05:29:47;;;;;;;4.80;0.93;;;;;;;28.54;33.55;100814.29;1704487;83;21033;-68
2022/07/02 05:32:14;;;;;;;5.53;1.02;;;;;;;28.19;34.63;100812.84;1681808;84;21561;-69
2022/07/02 05:34:41;;;;;;;1.25;0.50;;;;;;;27.84;35.06;100824.48;1688863;82;22090;-69
2022/07/02 05:37:07;;;;;;;4.53;0.90;;;;;;;27.50;36.05;100817.20;1679747;84;21054;-74
2022/07/02 05:39:33;;;;;;;2.40;0.30;;;;;;;27.50;35.89;100830.89;1681907;84;21593;-69
2022/07/02 05:42:01;;;;;;;1.75;0.72;;;;;;;27.50;35.41;100830.89;1682555;84;21038;-70
2022/07/02 05:44:27;;;;;;;4.05;0.70;;;;;;;27.32;35.77;100825.06;1679096;82;21089;-69
2022/07/02 05:46:53;;;;;;;5.78;0.60;;;;;;;27.10;35.78;100822.77;1687742;83;21066;-69
2022/07/02 05:49:19;;;;;;;1.02;0.78;;;;;;;27.05;36.45;100826.09;1710045;83;21069;-69
2022/07/02 05:51:47;;;;;;;2.92;0.55;;;;;;;27.22;36.50;100826.51;1688725;83;21137;-66
2022/07/02 05:54:14;;;;;;;2.02;0.72;;;;;;;27.53;36.08;100827.59;1684865;83;21077;-65
2022/07/02 05:56:40;;;;;;;4.15;0.60;;;;;;;27.66;34.60;100823.34;1681490;83;21057;-66
2022/07/02 05:59:06;;;;;;;5.22;0.50;;;;;;;27.45;35.29;100829.59;1679576;84;21618;-67
2022/07/02 06:01:33;;;;;;;0.62;0.40;;;;;;;27.47;35.58;100832.86;1691429;83;21056;-66
2022/07/02 06:03:59;;;;;;;1.70;0.53;;;;;;;27.56;35.43;100837.97;1692403;83;21097;-67
2022/07/02 06:09:11;;;;;;;2.90;0.85;;;;;;;27.20;35.50;100850.61;1690155;83;21088;-68
2022/07/02 06:11:38;;;;;;;2.85;0.40;;;;;;;27.00;36.30;100852.95;1709147;82;21028;-66
2022/07/02 06:14:04;;;;;;;2.45;0.98;;;;;;;27.06;36.11;100856.47;1692835;83;22273;-66
2022/07/02 06:16:31;;;;;;;2.67;0.80;;;;;;;27.31;35.47;100860.39;1686196;83;21027;-65
2022/07/02 06:18:58;;;;;;;1.57;0.62;;;;;;;27.48;35.29;100866.80;1684959;83;21063;-64
2022/07/02 06:21:24;;;;;;;2.15;0.53;;;;;;;27.79;35.19;100858.80;1692053;83;21144;-65
2022/07/02 06:23:55;;;;;;;0.72;0.50;;;;;;;27.86;34.25;100855.13;1687982;82;20998;-65
2022/07/02 06:26:21;;;;;;;3.40;0.80;;;;;;;27.47;35.16;100858.30;1684564;84;21544;-64
2022/07/02 06:28:47;;;;;;;1.92;0.57;;;;;;;27.12;35.26;100866.26;1677101;84;21117;-64
2022/07/02 06:31:13;;;;;;;1.07;0.57;;;;;;;26.97;36.17;100859.83;1678910;84;21438;-67
2022/07/02 06:33:41;;;;;;;2.92;0.35;;;;;;;27.16;36.58;100857.73;1671747;84;21046;-66
2022/07/02 06:36:14;;;;;;;5.20;0.47;;;;;;;27.52;36.14;100854.16;1690386;83;21133;-67
2022/07/02 06:38:41;;;;;;;7.90;1.05;;;;;;;27.73;35.37;100858.86;1690995;83;21154;-67
2022/07/02 06:43:52;;;;;;;7.10;0.40;;;;;;;28.01;34.20;100870.61;1698082;83;21489;-67
2022/07/02 06:46:18;;;;;;;3.22;0.70;;;;;;;27.98;34.48;100862.99;1658145;84;21032;-66
2022/07/02 06:48:45;;;;;;;2.60;0.55;;;;;;;27.95;33.97;100874.80;1655709;85;21057;-66
2022/07/02 06:51:11;;;;;;;4.60;1.10;;;;;;;27.99;33.76;100866.81;1694181;83;22441;-67
2022/07/02 06:53:37;;;;;;;1.27;0.57;;;;;;;28.11;32.89;100865.83;1692295;83;21521;-64
2022/07/02 06:56:04;;;;;;;3.47;0.60;;;;;;;28.21;33.09;100870.92;1690731;83;20998;-66
2022/07/02 06:58:31;;;;;;;4.70;0.65;;;;;;;28.07;32.89;100868.09;1689802;83;21077;-67
2022/07/02 07:00:58;;;;;;;1.50;0.37;;;;;;;27.79;32.94;100867.02;1656084;85;21078;-69
2022/07/02 07:03:24;;;;;;;3.35;0.62;;;;;;;27.57;33.46;100865.59;1628644;86;21144;-66
2022/07/02 07:05:52;;;;;;;5.25;0.70;;;;;;;27.32;33.78;100869.41;1711805;83;21121;-70
2022/07/02 07:08:18;;;;;;;3.30;0.57;;;;;;;27.16;34.33;100856.37;1689897;83;21495;-66
2022/07/02 07:10:46;;;;;;;2.20;0.50;;;;;;;27.13;34.41;100872.01;1658430;85;21105;-68
2022/07/02 07:13:14;;;;;;;2.30;0.50;;;;;;;27.10;34.25;100878.85;1652946;85;21593;-67
2022/07/02 07:15:40;;;;;;;1.60;0.40;;;;;;;27.19;33.59;100868.12;1692368;83;21062;-65
2022/07/02 07:18:06;;;;;;;2.50;0.50;;;;;;;27.30;33.80;100868.88;1693967;83;21022;-65
2022/07/02 07:20:34;;;;;;;1.35;0.30;;;;;;;27.33;34.34;100874.59;1692904;83;21057;-67
2022/07/02 07:23:00;;;;;;;4.08;0.20;;;;;;;27.38;33.96;100863.58;1678497;83;21144;-64
2022/07/02 07:25:27;;;;;;;5.10;0.65;;;;;;;27.41;34.29;100870.42;1693122;83;21046;-65
2022/07/02 07:27:53;;;;;;;5.33;0.65;;;;;;;27.49;33.81;100871.15;1692782;83;21090;-66
2022/07/02 07:30:19;;;;;;;2.60;0.60;;;;;;;27.74;33.20;100871.98;1695061;83;21562;-67
2022/07/02 07:32:45;;;;;;;1.17;0.53;;;;;;;27.82;32.89;100871.89;1694975;83;21109;-65
2022/07/02 07:35:12;;;;;;;7.40;0.62;;;;;;;27.84;32.51;100867.78;1697848;82;21065;-67
2022/07/02 07:37:38;;;;;;;1.65;0.53;;;;;;;27.94;32.88;100872.34;1695842;83;21049;-66
2022/07/02 07:40:11;;;;;;;0.72;0.30;;;;;;;28.11;32.51;100867.20;1693977;83;21110;-65
2022/07/02 07:42:35;;;;;;;1.47;0.33;;;;;;;28.05;32.05;100868.91;1694307;83;21500;-65
2022/07/02 07:45:03;;;;;;;2.50;0.42;;;;;;;27.86;32.31;100855.13;1693635;83;21109;-65
2022/07/02 07:47:30;;;;;;;5.03;0.50;;;;;;;27.81;32.63;100860.70;1694317;83;21145;-65
2022/07/02 07:49:56;;;;;;;7.53;0.60;;;;;;;27.70;32.98;100869.57;1690653;83;21070;-66
2022/07/02 07:52:23;;;;;;;1.30;0.53;;;;;;;27.57;33.19;100865.03;1691344;84;21089;-65
2022/07/02 07:54:49;;;;;;;6.87;0.50;;;;;;;27.46;33.42;100863.50;1691760;83;21014;-67
2022/07/02 07:57:15;;;;;;;3.55;0.47;;;;;;;27.42;33.00;100860.28;1719459;82;21573;-66
2022/07/02 07:59:41;;;;;;;5.03;0.47;;;;;;;27.36;33.00;100862.25;1724433;82;21056;-66
2022/07/02 08:02:07;;;;;;;1.75;0.23;;;;;;;27.35;33.06;100873.75;1701289;82;21050;-66
2022/07/02 08:04:33;;;;;;;6.17;0.30;;;;;;;27.31;32.60;100869.97;1693713;83;21085;-66
2022/07/02 08:06:59;;;;;;;2.40;0.37;;;;;;;27.00;32.97;100870.18;1689605;83;21155;-68
2022/07/02 08:09:26;;;;;;;4.92;0.30;;;;;;;26.61;33.47;100876.46;1685918;83;21478;-66
2022/07/02 08:11:52;;;;;;;3.45;0.30;;;;;;;26.46;34.02;100875.72;1693339;83;21147;-66
2022/07/02 08:14:18;;;;;;;2.65;0.57;;;;;;;26.44;33.91;100880.65;1686708;83;21047;-66
2022/07/02 08:16:44;;;;;;;4.62;0.40;;;;;;;26.43;34.14;100875.74;1638150;85;21585;-66
2022/07/02 08:19:11;;;;;;;5.03;0.40;;;;;;;26.45;34.44;100873.54;1691933;83;21129;-65
2022/07/02 08:21:37;;;;;;;7.35;0.95;;;;;;;26.50;34.41;100878.95;1693112;83;21170;-66
2022/07/02 08:24:04;;;;;;;0.62;0.23;;;;;;;26.60;34.16;100877.58;1693373;83;21110;-65
2022/07/02 08:26:30;;;;;;;3.00;0.20;;;;;;;26.65;34.24;100889.58;1693102;83;21109;-75
2022/07/02 08:28:56;;;;;;;2.67;0.30;;;;;;;26.69;34.29;100882.44;1657554;85;21549;-65
2022/07/02 08:31:23;;;;;;;6.03;0.42;;;;;;;26.73;33.09;100893.07;1697334;82;21027;-66
2022/07/02 08:33:49;;;;;;;1.42;0.30;;;;;;;26.75;32.82;100891.70;1702108;83;21117;-68
2022/07/02 08:36:15;;;;;;;3.77;0.40;;;;;;;26.73;32.97;100884.87;1723856;82;21097;-66
2022/07/02 08:38:42;;;;;;;1.62;0.30;;;;;;;26.75;32.52;100903.20;1722322;82;21560;-65
2022/07/02 08:41:10;;;;;;;4.28;0.28;;;;;;;26.77;32.03;100883.22;1721239;83;21014;-68
2022/07/02 08:43:39;;;;;;;4.28;0.50;;;;;;;26.72;31.84;100884.05;1709343;82;21208;-70
2022/07/02 08:46:07;;;;;;;1.67;0.45;;;;;;;26.71;32.21;100894.74;1664805;83;21140;-67
2022/07/02 08:48:36;;;;;;;3.85;0.20;;;;;;;26.71;32.36;100887.06;1684418;84;21061;-69
2022/07/02 08:51:02;;;;;;;1.40;0.40;;;;;;;26.69;32.26;100892.84;1683581;84;21110;-68
2022/07/02 08:53:29;;;;;;;2.37;0.60;;;;;;;26.63;32.49;100886.31;1684865;84;21017;-67
2022/07/02 08:55:57;;;;;;;1.27;0.45;;;;;;;26.60;31.54;100894.54;1686953;83;21046;-67
2022/07/02 08:58:24;;;;;;;2.35;0.45;;;;;;;26.48;31.74;100889.36;1667996;85;21070;-67
2022/07/02 09:00:51;;;;;;;1.57;0.57;;;;;;;26.45;31.35;100891.31;1697580;82;21541;-68
2022/07/02 09:03:21;;;;;;;0.40;0.40;;;;;;;26.48;30.92;100894.83;1707957;82;21062;-69
2022/07/02 09:05:51;;;;;;;0.42;0.35;;;;;;;26.53;30.85;100888.53;1699724;82;21567;-67
2022/07/02 09:08:19;;;;;;;1.37;0.40;;;;;;;26.57;31.24;100884.94;1696526;82;21152;-66
2022/07/02 09:10:47;;;;;;;4.55;0.60;;;;;;;26.63;31.83;100891.78;1709200;82;21463;-67
2022/07/02 09:13:15;;;;;;;0.50;0.40;;;;;;;26.71;31.35;100889.80;1709199;82;21045;-69
2022/07/02 09:15:42;;;;;;;1.90;0.53;;;;;;;26.73;31.07;100889.81;1705362;82;21077;-66
2022/07/02 09:18:09;;;;;;;2.40;0.40;;;;;;;26.73;31.24;100895.27;1703237;82;21105;-67
2022/07/02 09:20:35;;;;;;;1.35;0.20;;;;;;;26.72;31.19;100890.89;1707548;82;21034;-67
2022/07/02 09:23:20;;;;;;;2.15;0.30;;;;;;;26.71;31.67;100898.84;1708955;82;21478;-67
2022/07/02 09:25:40;;;;;;;0.40;0.40;;;;;;;26.69;31.67;100889.27;1706082;82;21065;-67
2022/07/02 09:28:06;;;;;;;0.20;0.20;;;;;;;26.64;31.40;100903.00;1709292;82;21042;-68
2022/07/02 09:30:38;;;;;;;1.22;0.50;;;;;;;26.60;31.20;100897.27;1709302;82;21110;-71
2022/07/02 09:33:35;;;;;;;0.85;0.30;;;;;;;26.59;29.81;100901.90;1708753;82;21086;-71
2022/07/02 09:36:10;;;;;;;;;;;;;;;26.57;29.76;100904.07;1709646;82;21031;-71
2022/07/02 09:38:46;;;;;;;3.47;0.40;;;;;;;26.57;29.43;100894.50;1709564;82;20389;-69
2022/07/02 09:41:20;;;;;;;3.10;0.40;;;;;;;26.49;29.21;100898.39;1709856;82;21499;-71
2022/07/02 09:44:03;;;;;;;1.15;0.30;;;;;;;26.47;29.38;100891.84;1706216;82;21545;-73
2022/07/02 09:46:27;;;;;;;6.00;0.30;;;;;;;26.48;29.78;100897.56;1691991;83;21056;-72
2022/07/02 09:48:53;;;;;;;1.32;0.25;;;;;;;26.54;30.07;100906.02;1693725;83;21035;-72
2022/07/02 09:51:19;;;;;;;0.45;0.30;;;;;;;26.58;30.00;100919.39;1690640;83;21616;-73
2022/07/02 09:53:54;;;;;;;1.70;0.20;;;;;;;26.61;29.75;100906.53;1689769;83;21100;-72
2022/07/02 09:56:23;;;;;;;3.50;0.27;;;;;;;26.59;28.43;100903.27;1688008;83;21062;-73
2022/07/02 09:58:51;;;;;;;0.25;0.20;;;;;;;26.58;28.99;100902.17;1690448;83;21054;-69
2022/07/02 10:01:23;;;;;;;3.27;0.45;;;;;;;26.55;29.42;100889.87;1692655;83;21039;-71
2022/07/02 10:03:52;;;;;;;5.20;0.30;;;;;;;26.56;29.80;100895.62;1688679;83;21636;-71
2022/07/02 10:06:20;;;;;;;1.92;0.35;;;;;;;26.63;29.73;100893.14;1689122;83;21131;-75
2022/07/02 10:08:47;;;;;;;7.17;0.60;;;;;;;26.64;29.10;100888.77;1690136;83;21039;-73
2022/07/02 10:11:15;;;;;;;3.20;0.40;;;;;;;26.59;28.87;100882.77;1692987;83;21150;-68
2022/07/02 10:13:43;;;;;;;0.65;0.35;;;;;;;26.56;29.72;100889.31;1689541;83;21687;-70
2022/07/02 10:16:15;;;;;;;0.88;0.20;;;;;;;26.48;29.53;100878.42;1692522;83;21043;-71
2022/07/02 10:18:45;;;;;;;1.27;0.30;;;;;;;26.44;30.15;100886.92;1684010;83;21000;-70
2022/07/02 10:21:14;;;;;;;2.92;0.57;;;;;;;26.49;29.95;100895.11;1690104;83;21594;-78
2022/07/02 10:23:44;;;;;;;0.82;0.55;;;;;;;26.51;29.40;100888.80;1682640;83;21039;-77
2022/07/02 10:26:11;;;;;;;1.87;0.33;;;;;;;26.53;29.09;100894.80;1693828;83;21070;-77
2022/07/02 10:28:37;;;;;;;4.33;0.70;;;;;;;26.53;29.21;100889.90;1691246;83;21075;-76
2022/07/02 10:31:15;;;;;;;4.05;0.30;;;;;;;26.48;29.48;100887.98;1692898;83;21035;-75
2022/07/02 10:33:50;;;;;;;1.55;0.30;;;;;;;26.44;29.55;100877.36;1694561;82;21021;-75
2022/07/02 10:36:17;;;;;;;3.25;0.50;;;;;;;26.45;30.17;100895.41;1704199;84;21173;-77
2022/07/02 10:38:46;;;;;;;3.62;0.35;;;;;;;26.51;29.49;100883.34;1704896;82;21327;-75
2022/07/02 10:41:15;;;;;;;0.93;0.30;;;;;;;26.49;29.40;100884.17;1707478;82;21075;-78
2022/07/02 10:43:42;;;;;;;1.85;0.42;;;;;;;26.47;29.47;100890.47;1678002;82;21060;-78
2022/07/02 10:46:12;;;;;;;4.33;0.30;;;;;;;26.52;29.50;100884.98;1703906;82;21135;-77
2022/07/02 10:48:50;;;;;;;1.32;0.45;;;;;;;26.59;29.28;100884.66;1700200;82;21070;-78
2022/07/02 10:51:19;;;;;;;1.72;0.37;;;;;;;26.66;28.91;100882.46;1702984;82;21081;-73
2022/07/02 10:53:51;;;;;;;1.32;0.35;;;;;;;26.76;28.64;100881.58;1706611;82;21047;-75
2022/07/02 10:56:18;;;;;;;5.37;0.30;;;;;;;26.83;28.58;100887.55;1702905;82;21022;-75
2022/07/02 10:58:44;;;;;;;2.02;0.20;;;;;;;26.87;28.20;100874.94;1706864;82;22253;-72
2022/07/02 11:01:21;;;;;;;2.58;0.40;;;;;;;26.88;28.15;100875.74;1705932;84;21552;-73
2022/07/02 11:04:00;;;;;;;4.05;0.30;;;;;;;26.85;28.76;100867.56;1706069;82;21665;-73
2022/07/02 11:06:33;;;;;;;2.60;0.40;;;;;;;26.90;28.95;100869.44;1705852;82;21027;-73
2022/07/02 11:09:02;;;;;;;1.87;0.25;;;;;;;26.94;28.57;100859.58;1665086;84;21633;-71
2022/07/02 11:11:40;;;;;;;3.77;0.40;;;;;;;26.93;28.45;100864.21;1705948;82;21085;-72
2022/07/02 11:14:11;;;;;;;1.85;0.20;;;;;;;26.92;28.61;100850.28;1707447;82;21194;-73
2022/07/02 11:16:43;;;;;;;0.30;0.30;;;;;;;26.94;28.67;100852.19;1707193;82;21041;-75
2022/07/02 11:19:22;;;;;;;1.72;0.10;;;;;;;26.97;28.63;100848.89;1707958;82;21109;-76
2022/07/02 11:21:50;;;;;;;3.00;0.28;;;;;;;26.99;28.74;100849.95;1691790;82;21054;-77
2022/07/02 11:24:20;;;;;;;1.98;0.37;;;;;;;27.01;28.91;100838.16;1680465;82;21097;-77
2022/07/02 11:26:47;;;;;;;2.95;0.47;;;;;;;27.07;28.87;100841.14;1697204;82;21098;-76
2022/07/02 11:29:13;;;;;;;4.05;0.20;;;;;;;27.15;28.56;100843.25;1703994;82;20978;-73
2022/07/02 11:31:44;;;;;;;4.28;0.35;;;;;;;27.16;28.38;100839.42;1698957;82;21101;-73
2022/07/02 11:34:10;;;;;;;1.55;0.35;;;;;;;27.18;28.56;100847.31;1693582;82;21069;-73
2022/07/02 11:36:38;;;;;;;4.30;0.30;;;;;;;27.19;28.37;100849.77;1694072;85;21057;-72
2022/07/02 11:39:13;;;;;;;2.20;0.25;;;;;;;27.20;28.23;100836.92;1688788;85;21029;-74